createdAt,value
2023-03-24T00:00:09.137Z,12.59
2023-03-24T00:02:37.785Z,12.54
2023-03-24T00:05:05.554Z,12.53
2023-03-24T00:07:35.260Z,12.50
2023-03-24T00:10:01.979Z,12.54
2023-03-24T00:12:28.494Z,12.57
2023-03-24T00:14:54.921Z,12.46
2023-03-24T00:17:25.351Z,12.37
2023-03-24T00:19:52.477Z,12.30
2023-03-24T00:22:21.372Z,12.24
2023-03-24T00:24:49.630Z,12.15
2023-03-24T00:27:17.617Z,12.04
2023-03-24T00:29:44.214Z,12.03
2023-03-24T00:32:10.767Z,12.12
2023-03-24T00:34:38.433Z,12.18
2023-03-24T00:37:06.234Z,12.21
2023-03-24T00:39:33.287Z,12.17
2023-03-24T00:42:01.808Z,12.19
2023-03-24T00:44:28.485Z,12.21
2023-03-24T00:46:57.872Z,12.23
2023-03-24T00:49:42.177Z,12.21
2023-03-24T00:52:20.887Z,12.09
2023-03-24T00:54:55.046Z,12.02
2023-03-24T00:57:21.813Z,12.01
2023-03-24T00:59:49.892Z,12.05
2023-03-24T01:02:22.373Z,12.05
2023-03-24T01:05:09.348Z,12.02
2023-03-24T01:07:35.794Z,11.94
2023-03-24T01:10:02.643Z,11.90
2023-03-24T01:12:34.716Z,11.85
2023-03-24T01:15:02.909Z,11.84
2023-03-24T01:17:29.716Z,11.79
2023-03-24T01:19:57.448Z,11.73
2023-03-24T01:22:29.354Z,11.70
2023-03-24T01:24:56.549Z,11.75
2023-03-24T01:27:23.610Z,11.76
2023-03-24T01:29:50.396Z,11.78
2023-03-24T01:32:16.864Z,11.68
2023-03-24T01:34:43.365Z,11.57
2023-03-24T01:37:09.839Z,11.58
2023-03-24T01:39:36.759Z,11.56
2023-03-24T01:42:03.358Z,11.48
2023-03-24T01:44:33.808Z,11.44
2023-03-24T01:47:01.490Z,11.38
2023-03-24T01:49:34.419Z,11.30
2023-03-24T01:52:03.264Z,11.39
2023-03-24T01:54:29.728Z,11.43
2023-03-24T01:57:03.830Z,11.36
2023-03-24T01:59:34.906Z,11.39
2023-03-24T02:02:04.176Z,11.41
2023-03-24T02:04:42.537Z,11.49
2023-03-24T02:07:27.844Z,11.49
2023-03-24T02:09:54.322Z,11.43
2023-03-24T02:12:20.784Z,11.30
2023-03-24T02:14:47.482Z,11.18
2023-03-24T02:17:21.554Z,11.13
2023-03-24T02:20:11.637Z,11.09
2023-03-24T02:23:30.825Z,11.05
2023-03-24T02:26:39.555Z,11.11
2023-03-24T02:29:39.744Z,11.24
2023-03-24T02:32:34.427Z,11.13
2023-03-24T02:35:19.423Z,11.10
2023-03-24T02:38:15.035Z,11.09
2023-03-24T02:41:06.429Z,11.10
2023-03-24T02:43:58.055Z,11.03
2023-03-24T02:46:37.687Z,11.00
2023-03-24T02:49:19.162Z,11.01
2023-03-24T02:51:51.301Z,11.08
2023-03-24T02:54:35.544Z,11.06
2023-03-24T02:57:31.327Z,10.92
2023-03-24T03:00:01.810Z,10.81
2023-03-24T03:02:34.468Z,10.79
2023-03-24T03:05:13.813Z,10.72
2023-03-24T03:07:42.682Z,10.58
2023-03-24T03:10:12.337Z,10.62
2023-03-24T03:12:40.131Z,10.75
2023-03-24T03:15:10.733Z,10.81
2023-03-24T03:17:48.849Z,10.89
2023-03-24T03:20:22.641Z,10.88
2023-03-24T03:22:54.334Z,10.84
2023-03-24T03:25:24.888Z,10.76
2023-03-24T03:27:54.743Z,10.65
2023-03-24T03:30:29.090Z,10.61
2023-03-24T03:33:02.294Z,10.52
2023-03-24T03:35:39.025Z,10.52
2023-03-24T03:38:18.322Z,10.53
2023-03-24T03:40:51.726Z,10.47
2023-03-24T03:43:18.921Z,10.46
2023-03-24T03:45:46.212Z,10.48
2023-03-24T03:48:13.777Z,10.44
2023-03-24T03:50:40.389Z,10.43
2023-03-24T03:53:08.230Z,10.43
2023-03-24T03:55:35.525Z,10.43
2023-03-24T03:58:04.295Z,10.37
2023-03-24T04:00:31.362Z,10.39
2023-03-24T04:03:12.922Z,10.38
2023-03-24T04:05:53.516Z,10.38
2023-03-24T04:08:42.605Z,10.44
2023-03-24T04:11:27.881Z,10.36
2023-03-24T04:14:15.672Z,10.27
2023-03-24T04:17:19.613Z,10.28
2023-03-24T04:20:08.087Z,10.28
2023-03-24T04:22:38.364Z,10.26
2023-03-24T04:25:18.080Z,10.30
2023-03-24T04:28:01.077Z,10.34
2023-03-24T04:30:44.574Z,10.48
2023-03-24T04:33:28.807Z,10.42
2023-03-24T04:36:06.495Z,10.35
2023-03-24T04:38:36.309Z,10.29
2023-03-24T04:41:05.572Z,10.27
2023-03-24T04:43:36.525Z,10.33
2023-03-24T04:46:05.552Z,10.37
2023-03-24T04:48:32.031Z,10.31
2023-03-24T04:51:01.450Z,10.27
2023-03-24T04:53:29.153Z,10.25
2023-03-24T04:56:27.789Z,10.02
2023-03-24T04:58:54.341Z,9.95
2023-03-24T05:01:21.438Z,10.00
2023-03-24T05:03:49.156Z,9.93
2023-03-24T05:06:16.919Z,9.89
2023-03-24T05:08:43.343Z,9.81
2023-03-24T05:11:10.271Z,9.79
2023-03-24T05:13:36.811Z,9.80
2023-03-24T05:16:03.512Z,9.84
2023-03-24T05:18:30.396Z,9.88
2023-03-24T05:20:57.223Z,9.95
2023-03-24T05:23:23.735Z,10.05
2023-03-24T05:25:50.303Z,10.10
2023-03-24T05:28:16.934Z,10.15
2023-03-24T05:30:43.569Z,10.22
2023-03-24T05:33:10.403Z,10.20
2023-03-24T05:35:37.044Z,10.21
2023-03-24T05:38:03.502Z,10.25
2023-03-24T05:40:30.001Z,10.25
2023-03-24T05:42:56.832Z,10.24
2023-03-24T05:45:25.137Z,10.21
2023-03-24T05:47:51.794Z,10.19
2023-03-24T05:50:18.620Z,10.23
2023-03-24T05:52:46.287Z,10.32
2023-03-24T05:55:13.015Z,10.37
2023-03-24T05:57:39.459Z,10.36
2023-03-24T06:00:10.569Z,10.39
2023-03-24T06:02:37.207Z,10.52
2023-03-24T06:05:03.976Z,10.52
2023-03-24T06:07:30.652Z,10.50
2023-03-24T06:10:03.547Z,10.50
2023-03-24T06:12:32.342Z,10.56
2023-03-24T06:14:58.849Z,10.65
2023-03-24T06:17:25.684Z,10.71
2023-03-24T06:19:52.117Z,10.70
2023-03-24T06:22:19.325Z,10.74
2023-03-24T06:24:47.079Z,10.78
2023-03-24T06:27:14.253Z,10.74
2023-03-24T06:29:42.589Z,10.80
2023-03-24T06:32:09.843Z,10.82
2023-03-24T06:34:38.768Z,10.85
2023-03-24T06:37:05.477Z,10.94
2023-03-24T06:39:31.970Z,11.02
2023-03-24T06:41:58.605Z,11.03
2023-03-24T06:44:25.288Z,11.14
2023-03-24T06:46:51.918Z,11.20
2023-03-24T06:49:18.673Z,11.25
2023-03-24T06:51:45.217Z,11.32
2023-03-24T06:54:11.902Z,11.41
2023-03-24T06:56:38.509Z,11.47
2023-03-24T06:59:05.158Z,11.55
2023-03-24T07:01:32.165Z,11.55
2023-03-24T07:03:58.728Z,11.56
2023-03-24T07:06:25.540Z,11.62
2023-03-24T07:08:52.287Z,11.71
2023-03-24T07:11:19.477Z,11.81
2023-03-24T07:13:46.188Z,11.81
2023-03-24T07:16:13.023Z,11.75
2023-03-24T07:18:39.614Z,11.65
2023-03-24T07:21:06.331Z,11.57
2023-03-24T07:23:33.616Z,11.65
2023-03-24T07:26:00.927Z,11.66
2023-03-24T07:28:27.447Z,11.71
2023-03-24T07:30:55.368Z,11.82
2023-03-24T07:33:24.495Z,11.90
2023-03-24T07:35:56.078Z,11.93
2023-03-24T07:38:23.548Z,11.97
2023-03-24T07:40:50.057Z,12.01
2023-03-24T07:43:17.134Z,12.06
2023-03-24T07:45:47.050Z,12.01
2023-03-24T07:48:13.795Z,12.05
2023-03-24T07:50:40.494Z,12.15
2023-03-24T07:53:09.830Z,12.19
2023-03-24T07:55:39.836Z,12.30
2023-03-24T07:58:07.572Z,12.39
2023-03-24T08:00:34.663Z,12.46
2023-03-24T08:03:01.303Z,12.51
2023-03-24T08:05:30.793Z,12.61
2023-03-24T08:07:58.547Z,12.77
2023-03-24T08:10:27.361Z,12.85
2023-03-24T08:12:54.188Z,12.90
2023-03-24T08:15:21.375Z,12.94
2023-03-24T08:17:49.567Z,12.93
2023-03-24T08:20:16.917Z,13.05
2023-03-24T08:22:45.684Z,13.14
2023-03-24T08:25:12.879Z,13.22
2023-03-24T08:27:40.307Z,13.27
2023-03-24T08:30:08.803Z,13.35
2023-03-24T08:32:35.513Z,13.41
2023-03-24T08:35:04.889Z,13.52
2023-03-24T08:37:31.599Z,13.54
2023-03-24T08:39:58.811Z,13.53
2023-03-24T08:42:26.206Z,13.52
2023-03-24T08:44:53.106Z,13.67
2023-03-24T08:47:19.903Z,13.74
2023-03-24T08:49:46.743Z,13.84
2023-03-24T08:52:13.470Z,13.98
2023-03-24T08:54:40.226Z,14.07
2023-03-24T08:57:06.956Z,14.14
2023-03-24T08:59:33.470Z,14.18
2023-03-24T09:02:00.136Z,14.18
2023-03-24T09:04:27.489Z,14.24
2023-03-24T09:07:02.307Z,14.29
2023-03-24T09:09:30.404Z,14.47
2023-03-24T09:11:57.264Z,14.67
2023-03-24T09:14:24.308Z,14.84
2023-03-24T09:16:51.420Z,14.99
2023-03-24T09:19:18.100Z,15.13
2023-03-24T09:21:46.991Z,15.34
2023-03-24T09:24:14.038Z,15.50
2023-03-24T09:26:41.122Z,15.57
2023-03-24T09:29:08.293Z,15.64
2023-03-24T09:31:34.888Z,15.69
2023-03-24T09:34:04.116Z,15.79
2023-03-24T09:36:31.285Z,15.97
2023-03-24T09:38:57.900Z,15.99
2023-03-24T09:41:30.137Z,16.26
2023-03-24T09:44:03.152Z,16.21
2023-03-24T09:46:43.241Z,16.09
2023-03-24T09:49:17.618Z,16.18
2023-03-24T09:51:46.325Z,16.19
2023-03-24T09:54:27.414Z,16.59
2023-03-24T09:56:58.482Z,16.73
2023-03-24T09:59:39.581Z,16.71
2023-03-24T10:02:18.263Z,16.63
2023-03-24T10:04:45.331Z,16.37
2023-03-24T10:07:30.481Z,16.25
2023-03-24T10:09:59.344Z,16.10
2023-03-24T10:12:35.186Z,16.30
2023-03-24T10:15:04.620Z,16.58
2023-03-24T10:17:47.030Z,16.88
2023-03-24T10:20:37.094Z,17.39
2023-03-24T10:23:36.117Z,17.60
2023-03-24T10:26:32.763Z,17.10
2023-03-24T10:29:23.966Z,17.46
2023-03-24T10:32:02.639Z,17.39
2023-03-24T10:34:33.048Z,17.09
2023-03-24T10:37:02.929Z,17.12
2023-03-24T10:39:41.916Z,17.24
2023-03-24T10:42:21.785Z,17.35
2023-03-24T10:44:51.080Z,17.69
2023-03-24T10:47:24.243Z,17.90
2023-03-24T10:49:53.852Z,17.92
2023-03-24T10:52:20.933Z,17.93
2023-03-24T10:54:56.263Z,18.05
2023-03-24T10:57:24.869Z,18.07
2023-03-24T11:00:24.445Z,18.13
2023-03-24T11:03:01.439Z,17.54
2023-03-24T11:05:30.872Z,17.31
2023-03-24T11:08:11.771Z,17.87
2023-03-24T11:10:38.723Z,18.12
2023-03-24T11:13:07.849Z,17.90
2023-03-24T11:15:37.434Z,17.59
2023-03-24T11:18:14.245Z,18.11
2023-03-24T11:20:45.614Z,18.39
2023-03-24T11:23:38.366Z,18.35
2023-03-24T11:26:18.624Z,18.13
2023-03-24T11:28:57.202Z,18.05
2023-03-24T11:31:30.817Z,18.09
2023-03-24T11:34:14.764Z,18.49
2023-03-24T11:37:01.784Z,18.20
2023-03-24T11:39:31.637Z,18.19
2023-03-24T11:42:10.443Z,18.14
2023-03-24T11:44:39.868Z,18.47
2023-03-24T11:47:12.292Z,18.60
2023-03-24T11:49:48.767Z,18.58
2023-03-24T11:52:25.412Z,18.53
2023-03-24T11:54:52.103Z,18.62
2023-03-24T11:57:42.694Z,18.73
2023-03-24T12:00:42.078Z,18.05
2023-03-24T12:03:32.937Z,17.90
2023-03-24T12:06:06.804Z,18.21
2023-03-24T12:08:49.107Z,18.00
2023-03-24T12:11:51.083Z,18.17
2023-03-24T12:14:29.947Z,18.40
2023-03-24T12:17:13.779Z,18.48
2023-03-24T12:20:05.040Z,18.77
2023-03-24T12:22:39.046Z,18.66
2023-03-24T12:25:12.210Z,18.42
2023-03-24T12:27:52.379Z,18.58
2023-03-24T12:30:50.795Z,18.63
2023-03-24T12:33:38.274Z,18.63
2023-03-24T12:36:13.458Z,18.50
2023-03-24T12:38:46.083Z,18.65
2023-03-24T12:41:24.940Z,18.90
2023-03-24T12:44:22.921Z,19.02
2023-03-24T12:47:10.860Z,18.96
2023-03-24T12:49:56.088Z,19.00
2023-03-24T12:52:43.797Z,19.08
2023-03-24T12:55:14.496Z,19.21
2023-03-24T12:57:48.940Z,19.35
2023-03-24T13:00:23.279Z,19.29
2023-03-24T13:02:57.740Z,19.39
2023-03-24T13:05:31.978Z,19.50
2023-03-24T13:08:13.870Z,19.30
2023-03-24T13:10:42.222Z,19.30
2023-03-24T13:13:22.536Z,19.57
2023-03-24T13:16:00.662Z,19.58
2023-03-24T13:18:39.388Z,19.74
2023-03-24T13:21:37.679Z,19.75
2023-03-24T13:24:13.598Z,19.88
2023-03-24T13:27:00.503Z,19.77
2023-03-24T13:30:00.038Z,19.52
2023-03-24T13:32:35.472Z,19.38
2023-03-24T13:35:13.654Z,19.17
2023-03-24T13:38:01.308Z,18.93
2023-03-24T13:40:32.358Z,18.51
2023-03-24T13:43:06.412Z,18.73
2023-03-24T13:45:47.991Z,18.89
2023-03-24T13:48:17.597Z,18.92
2023-03-24T13:50:55.820Z,18.90
2023-03-24T13:53:43.310Z,18.76
2023-03-24T13:56:12.396Z,18.78
2023-03-24T13:59:06.913Z,18.65
2023-03-24T14:01:39.576Z,18.63
2023-03-24T14:04:27.106Z,18.64
2023-03-24T14:06:54.910Z,18.62
2023-03-24T14:09:22.752Z,18.59
2023-03-24T14:11:56.224Z,18.53
2023-03-24T14:14:24.819Z,18.43
2023-03-24T14:16:52.248Z,18.49
2023-03-24T14:19:22.083Z,18.52
2023-03-24T14:22:04.539Z,18.33
2023-03-24T14:24:33.013Z,18.22
2023-03-24T14:26:59.628Z,18.33
2023-03-24T14:29:36.198Z,18.46
2023-03-24T14:32:17.105Z,18.56
2023-03-24T14:35:00.099Z,18.52
2023-03-24T14:37:28.562Z,18.54
2023-03-24T14:39:58.172Z,18.52
2023-03-24T14:42:33.884Z,18.59
2023-03-24T14:45:06.984Z,18.62
2023-03-24T14:47:37.560Z,18.39
2023-03-24T14:50:21.188Z,18.49
2023-03-24T14:52:57.499Z,18.55
2023-03-24T14:55:25.620Z,18.55
2023-03-24T14:57:56.392Z,18.46
2023-03-24T15:00:28.825Z,18.28
2023-03-24T15:03:11.091Z,18.13
2023-03-24T15:05:38.905Z,18.07
2023-03-24T15:08:23.675Z,17.97
2023-03-24T15:11:04.652Z,18.16
2023-03-24T15:13:36.164Z,18.34
2023-03-24T15:16:24.527Z,18.34
2023-03-24T15:19:01.839Z,18.35
2023-03-24T15:21:35.062Z,18.34
2023-03-24T15:24:03.998Z,18.30
2023-03-24T15:26:32.148Z,18.26
2023-03-24T15:29:11.133Z,18.23
2023-03-24T15:31:39.520Z,18.18
2023-03-24T15:34:29.845Z,18.29
2023-03-24T15:36:58.781Z,18.25
2023-03-24T15:39:36.338Z,18.22
2023-03-24T15:42:08.804Z,18.29
2023-03-24T15:44:39.620Z,18.23
2023-03-24T15:47:16.190Z,18.18
2023-03-24T15:49:52.710Z,18.16
2023-03-24T15:52:34.864Z,18.15
2023-03-24T15:55:21.833Z,18.06
2023-03-24T15:57:48.473Z,18.09
2023-03-24T16:00:19.734Z,18.03
2023-03-24T16:02:52.476Z,18.07
2023-03-24T16:05:25.802Z,18.07
2023-03-24T16:08:08.033Z,18.02
2023-03-24T16:10:42.703Z,17.94
2023-03-24T16:13:15.695Z,17.83
2023-03-24T16:16:03.728Z,17.78
2023-03-24T16:18:34.810Z,17.71
2023-03-24T16:21:02.461Z,17.63
2023-03-24T16:23:30.505Z,17.55
2023-03-24T16:25:56.967Z,17.50
2023-03-24T16:28:24.852Z,17.42
2023-03-24T16:31:02.015Z,17.36
2023-03-24T16:33:30.371Z,17.28
2023-03-24T16:35:56.872Z,17.24
2023-03-24T16:38:23.414Z,17.16
2023-03-24T16:40:52.835Z,17.08
2023-03-24T16:43:20.427Z,17.00
2023-03-24T16:45:48.694Z,16.96
2023-03-24T16:48:16.343Z,16.92
2023-03-24T16:50:45.952Z,16.84
2023-03-24T16:53:12.566Z,16.74
2023-03-24T16:55:41.678Z,16.71
2023-03-24T16:58:08.544Z,16.66
2023-03-24T17:00:39.196Z,16.61
2023-03-24T17:03:06.910Z,16.58
2023-03-24T17:05:41.192Z,16.56
2023-03-24T17:08:07.880Z,16.56
2023-03-24T17:10:34.445Z,16.52
2023-03-24T17:13:02.096Z,16.53
2023-03-24T17:15:30.648Z,16.51
2023-03-24T17:17:57.187Z,16.50
2023-03-24T17:20:24.708Z,16.44
2023-03-24T17:22:54.330Z,16.46
2023-03-24T17:25:23.102Z,16.40
2023-03-24T17:27:51.277Z,16.36
2023-03-24T17:30:23.339Z,16.40
2023-03-24T17:32:50.370Z,16.33
2023-03-24T17:35:19.901Z,16.34
2023-03-24T17:37:48.210Z,16.35
2023-03-24T17:40:17.119Z,16.35
2023-03-24T17:42:46.466Z,16.28
2023-03-24T17:45:17.873Z,16.26
2023-03-24T17:47:45.012Z,16.21
2023-03-24T17:50:12.068Z,16.14
2023-03-24T17:52:43.052Z,16.12
2023-03-24T17:55:11.347Z,16.07
2023-03-24T17:57:37.809Z,16.03
2023-03-24T18:00:06.609Z,15.97
2023-03-24T18:02:33.091Z,15.95
2023-03-24T18:04:59.599Z,15.97
2023-03-24T18:07:26.006Z,15.91
2023-03-24T18:09:52.464Z,15.91
2023-03-24T18:12:19.232Z,15.88
2023-03-24T18:14:46.018Z,15.94
2023-03-24T18:17:12.758Z,15.87
2023-03-24T18:19:40.259Z,15.76
2023-03-24T18:22:06.689Z,15.75
2023-03-24T18:24:33.353Z,15.75
2023-03-24T18:27:01.092Z,15.72
2023-03-24T18:29:27.586Z,15.68
2023-03-24T18:31:54.589Z,15.66
2023-03-24T18:34:23.088Z,15.67
2023-03-24T18:36:50.079Z,15.64
2023-03-24T18:39:16.948Z,15.58
2023-03-24T18:41:43.620Z,15.54
2023-03-24T18:44:14.168Z,15.56
2023-03-24T18:46:40.818Z,15.53
2023-03-24T18:49:11.978Z,15.53
2023-03-24T18:51:38.284Z,15.50
2023-03-24T18:54:05.571Z,15.52
2023-03-24T18:56:32.885Z,15.52
2023-03-24T18:58:59.329Z,15.51
2023-03-24T19:01:26.107Z,15.51
2023-03-24T19:03:53.825Z,15.54
2023-03-24T19:06:21.789Z,15.58
2023-03-24T19:08:52.376Z,15.57
2023-03-24T19:11:19.201Z,15.57
2023-03-24T19:13:47.249Z,15.58
2023-03-24T19:16:13.719Z,15.52
2023-03-24T19:18:41.160Z,15.46
2023-03-24T19:21:08.379Z,15.46
2023-03-24T19:23:35.832Z,15.40
2023-03-24T19:26:03.476Z,15.37
2023-03-24T19:28:32.142Z,15.36
2023-03-24T19:31:00.663Z,15.41
2023-03-24T19:33:27.701Z,15.45
2023-03-24T19:35:54.332Z,15.42
2023-03-24T19:38:24.848Z,15.36
2023-03-24T19:40:52.825Z,15.31
2023-03-24T19:43:20.566Z,15.30
2023-03-24T19:45:51.173Z,15.20
2023-03-24T19:48:18.106Z,15.13
2023-03-24T19:50:46.070Z,15.05
2023-03-24T19:53:12.874Z,15.08
2023-03-24T19:55:39.448Z,15.03
2023-03-24T19:58:06.448Z,15.07
2023-03-24T20:00:33.347Z,15.08
2023-03-24T20:02:59.901Z,15.09
2023-03-24T20:05:26.537Z,15.07
2023-03-24T20:07:58.452Z,15.04
2023-03-24T20:10:27.247Z,15.04
2023-03-24T20:12:53.831Z,15.05
2023-03-24T20:15:20.383Z,15.00
2023-03-24T20:17:46.998Z,14.98
2023-03-24T20:20:14.507Z,14.97
2023-03-24T20:22:44.189Z,14.97
2023-03-24T20:25:12.582Z,14.88
2023-03-24T20:27:39.954Z,14.88
2023-03-24T20:30:08.232Z,14.90
2023-03-24T20:32:34.939Z,14.92
2023-03-24T20:35:01.448Z,14.93
2023-03-24T20:37:30.404Z,14.94
2023-03-24T20:39:56.882Z,14.90
2023-03-24T20:42:24.452Z,14.88
2023-03-24T20:44:51.042Z,14.82
2023-03-24T20:47:19.136Z,14.87
2023-03-24T20:49:48.642Z,14.88
2023-03-24T20:52:15.161Z,14.91
2023-03-24T20:54:41.632Z,14.90
2023-03-24T20:57:09.570Z,14.91
2023-03-24T20:59:37.820Z,14.88
2023-03-24T21:02:06.143Z,14.83
2023-03-24T21:04:33.435Z,14.80
2023-03-24T21:06:59.987Z,14.80
2023-03-24T21:09:26.614Z,14.80
2023-03-24T21:11:54.473Z,14.82
2023-03-24T21:14:21.030Z,14.80
2023-03-24T21:16:48.127Z,14.74
2023-03-24T21:19:14.659Z,14.80
2023-03-24T21:21:42.809Z,14.80
2023-03-24T21:24:09.313Z,14.82
2023-03-24T21:26:35.920Z,14.74
2023-03-24T21:29:02.324Z,14.68
2023-03-24T21:31:29.733Z,14.66
2023-03-24T21:33:57.023Z,14.67
2023-03-24T21:36:27.305Z,14.65
2023-03-24T21:38:54.117Z,14.64
2023-03-24T21:41:21.564Z,14.62
2023-03-24T21:43:54.144Z,14.63
2023-03-24T21:46:22.565Z,14.61
2023-03-24T21:48:51.761Z,14.64
2023-03-24T21:51:21.094Z,14.68
2023-03-24T21:53:47.759Z,14.60
2023-03-24T21:56:14.525Z,14.67
2023-03-24T21:58:41.468Z,14.74
2023-03-24T22:01:09.093Z,14.69
2023-03-24T22:03:37.270Z,14.69
2023-03-24T22:06:05.315Z,14.75
2023-03-24T22:08:32.141Z,14.75
2023-03-24T22:11:00.716Z,14.69
2023-03-24T22:13:28.456Z,14.70
2023-03-24T22:15:56.353Z,14.63
2023-03-24T22:18:24.501Z,14.62
2023-03-24T22:21:03.372Z,14.64
2023-03-24T22:23:36.536Z,14.59
2023-03-24T22:26:06.264Z,14.64
2023-03-24T22:28:34.738Z,14.62
2023-03-24T22:31:09.482Z,14.56
2023-03-24T22:33:36.439Z,14.51
2023-03-24T22:36:03.659Z,14.48
2023-03-24T22:38:31.051Z,14.46
2023-03-24T22:41:03.663Z,14.52
2023-03-24T22:43:31.001Z,14.44
2023-03-24T22:45:57.615Z,14.47
2023-03-24T22:48:24.162Z,14.50
2023-03-24T22:50:51.378Z,14.46
2023-03-24T22:53:18.169Z,14.47
2023-03-24T22:55:45.075Z,14.49
2023-03-24T22:58:13.360Z,14.54
2023-03-24T23:00:45.381Z,14.53
2023-03-24T23:03:12.204Z,14.46
2023-03-24T23:05:43.452Z,14.50
2023-03-24T23:08:10.059Z,14.50
2023-03-24T23:10:37.243Z,14.48
2023-03-24T23:13:04.108Z,14.41
2023-03-24T23:15:31.897Z,14.51
2023-03-24T23:17:59.272Z,14.53
2023-03-24T23:20:26.212Z,14.45
2023-03-24T23:22:52.649Z,14.37
2023-03-24T23:25:19.419Z,14.32
2023-03-24T23:27:46.572Z,14.32
2023-03-24T23:30:15.258Z,14.31
2023-03-24T23:32:43.565Z,14.34
2023-03-24T23:35:11.325Z,14.41
2023-03-24T23:37:39.529Z,14.42
2023-03-24T23:40:12.629Z,14.39
2023-03-24T23:42:41.718Z,14.35
2023-03-24T23:45:10.932Z,14.32
2023-03-24T23:47:37.628Z,14.29
2023-03-24T23:50:06.249Z,14.19
2023-03-24T23:52:33.174Z,14.14
2023-03-24T23:54:59.578Z,14.15
2023-03-24T23:57:26.257Z,14.12
2023-03-24T23:59:53.668Z,14.12
